Time;durP1;ratioP1;P1;durP2;ratioP2;P2;SDS_P1;SDS_P2;PMS_P1;PMS_P2;Temp;Humidity;BMP_temperature;BMP_pressure;BME280_temperature;BME280_humidity;BME280_pressure;Samples;Min_cycle;Max_cycle;Signal;HPM_P1;HPM_P2
2023/11/18 00:00:53;;;;;;;69.47;65.57;;;13.00;99.90;;;;;;4981146;28;20030;-69
2023/11/18 00:03:19;;;;;;;65.55;61.58;;;13.00;99.90;;;;;;4998086;28;20060;-70
2023/11/18 00:05:45;;;;;;;73.43;69.22;;;13.00;99.90;;;;;;5015179;28;20037;-69
2023/11/18 00:08:11;;;;;;;73.15;69.20;;;12.80;99.90;;;;;;5010676;28;20049;-70
2023/11/18 00:10:37;;;;;;;72.15;68.13;;;12.80;99.90;;;;;;4999040;28;20390;-69
2023/11/18 00:13:03;;;;;;;67.75;64.05;;;12.80;99.90;;;;;;4996430;28;20030;-72
2023/11/18 00:15:30;;;;;;;72.85;69.00;;;12.80;99.90;;;;;;4994122;28;20038;-71
2023/11/18 00:17:56;;;;;;;74.80;70.57;;;12.80;99.90;;;;;;4996110;28;20050;-72
2023/11/18 00:20:23;;;;;;;74.82;70.75;;;12.70;99.90;;;;;;4994619;28;20037;-72
2023/11/18 00:22:51;;;;;;;65.10;61.38;;;12.70;99.90;;;;;;4996142;28;20043;-72
2023/11/18 00:25:17;;;;;;;70.15;66.40;;;12.70;99.90;;;;;;4992368;28;20210;-72
2023/11/18 00:27:44;;;;;;;59.75;56.45;;;12.60;99.90;;;;;;4993907;28;20039;-72
2023/11/18 00:30:13;;;;;;;67.03;63.33;;;12.50;99.90;;;;;;4993958;28;20034;-72
2023/11/18 00:32:39;;;;;;;57.35;54.17;;;12.50;99.90;;;;;;4981045;28;20034;-72
2023/11/18 00:35:06;;;;;;;64.53;60.80;;;12.60;99.90;;;;;;4993699;28;20054;-72
2023/11/18 00:37:33;;;;;;;54.95;51.72;;;12.70;99.90;;;;;;4992802;28;20047;-72
2023/11/18 00:39:59;;;;;;;61.35;58.10;;;12.60;99.90;;;;;;4979620;28;20053;-72
2023/11/18 00:42:25;;;;;;;55.63;52.55;;;12.60;99.90;;;;;;4993229;28;20050;-72
2023/11/18 00:44:51;;;;;;;51.47;48.58;;;12.60;99.90;;;;;;4992772;28;20050;-72
2023/11/18 00:47:17;;;;;;;55.17;52.22;;;12.50;99.90;;;;;;4994371;28;20511;-71
2023/11/18 00:49:43;;;;;;;57.05;54.08;;;12.50;99.90;;;;;;4993403;28;20045;-72
2023/11/18 00:52:09;;;;;;;54.22;50.97;;;12.60;99.90;;;;;;4991491;28;20471;-72
2023/11/18 00:54:36;;;;;;;48.88;45.97;;;12.60;99.90;;;;;;4995154;28;20045;-72
2023/11/18 00:57:03;;;;;;;48.85;45.80;;;12.50;99.90;;;;;;4994064;28;20046;-72
2023/11/18 00:59:29;;;;;;;51.75;48.75;;;12.60;99.90;;;;;;4981860;28;20050;-71
2023/11/18 01:01:55;;;;;;;46.63;43.90;;;12.50;99.90;;;;;;4993576;28;20035;-72
2023/11/18 01:04:21;;;;;;;45.50;42.88;;;12.50;99.90;;;;;;4993911;28;20057;-72
2023/11/18 01:06:48;;;;;;;44.22;41.85;;;12.50;99.90;;;;;;4994585;28;20479;-72
2023/11/18 01:09:16;;;;;;;46.25;43.75;;;12.50;99.90;;;;;;4994857;28;20042;-73
2023/11/18 01:11:42;;;;;;;72.57;68.80;;;12.50;99.90;;;;;;4992634;28;20054;-72
2023/11/18 01:14:08;;;;;;;48.88;46.22;;;12.40;99.90;;;;;;4978639;28;20031;-72
2023/11/18 01:16:34;;;;;;;49.45;46.78;;;12.30;99.90;;;;;;4993252;28;20046;-68
2023/11/18 01:19:00;;;;;;;58.95;56.00;;;12.30;99.90;;;;;;4994419;28;20030;-67
2023/11/18 01:21:27;;;;;;;63.42;60.00;;;12.40;99.90;;;;;;4993783;28;20049;-68
2023/11/18 01:23:53;;;;;;;64.68;61.33;;;12.30;99.90;;;;;;4993760;28;20487;-67
2023/11/18 01:26:19;;;;;;;61.05;57.70;;;12.20;99.90;;;;;;4994436;28;20053;-67
2023/11/18 01:28:46;;;;;;;57.92;54.90;;;12.10;99.90;;;;;;4993495;28;20030;-68
2023/11/18 01:31:13;;;;;;;55.28;52.05;;;12.20;99.90;;;;;;4993413;28;20035;-68
2023/11/18 01:33:43;;;;;;;57.97;55.00;;;12.20;99.90;;;;;;4994184;28;20046;-67
2023/11/18 01:36:12;;;;;;;61.90;58.63;;;12.30;99.90;;;;;;4993791;28;20034;-68
2023/11/18 01:38:38;;;;;;;64.15;60.90;;;12.30;99.90;;;;;;4993353;28;20387;-68
2023/11/18 01:41:09;;;;;;;51.63;48.85;;;12.20;99.90;;;;;;4993719;28;20050;-67
2023/11/18 01:43:35;;;;;;;56.25;53.30;;;12.20;99.90;;;;;;4994237;28;20042;-68
2023/11/18 01:46:07;;;;;;;63.70;60.30;;;12.20;99.90;;;;;;4991232;28;20069;-67
2023/11/18 01:48:33;;;;;;;50.10;47.17;;;12.10;99.90;;;;;;4990473;28;20047;-68
2023/11/18 01:50:59;;;;;;;46.67;44.00;;;12.10;99.90;;;;;;4985935;28;20039;-68
2023/11/18 01:53:26;;;;;;;69.93;65.97;;;12.10;99.90;;;;;;4992523;28;20027;-67
2023/11/18 01:55:52;;;;;;;75.25;71.38;;;12.10;99.90;;;;;;4993993;28;20031;-67
2023/11/18 01:58:19;;;;;;;66.40;62.50;;;12.20;99.90;;;;;;4991887;28;20100;-68
2023/11/18 02:00:46;;;;;;;69.55;65.40;;;12.20;99.90;;;;;;4985203;28;20037;-67
2023/11/18 02:03:12;;;;;;;77.03;72.88;;;12.20;99.90;;;;;;4978571;28;20047;-68
2023/11/18 02:05:38;;;;;;;72.95;68.97;;;12.30;99.90;;;;;;4991241;28;20046;-67
2023/11/18 02:08:06;;;;;;;74.75;70.47;;;12.30;99.90;;;;;;4991449;28;20053;-68
2023/11/18 02:11:00;;;;;;;67.30;63.63;;;12.30;99.90;;;;;;4985062;28;20045;-68
2023/11/18 02:13:31;;;;;;;77.72;73.72;;;12.30;99.90;;;;;;4991805;28;20045;-68
2023/11/18 02:15:57;;;;;;;50.53;47.55;;;12.30;99.90;;;;;;4985874;28;20045;-68
2023/11/18 02:18:29;;;;;;;67.38;63.83;;;12.30;99.90;;;;;;4999182;28;20037;-72
2023/11/18 02:20:57;;;;;;;64.07;60.38;;;12.30;99.90;;;;;;4987475;28;20033;-71
2023/11/18 02:23:24;;;;;;;69.13;65.28;;;12.30;99.90;;;;;;4994172;28;20404;-72
2023/11/18 02:25:50;;;;;;;74.07;70.05;;;12.40;99.90;;;;;;4992089;28;20047;-72
2023/11/18 02:28:16;;;;;;;66.60;63.03;;;12.40;99.90;;;;;;4993547;28;20042;-72
2023/11/18 02:30:42;;;;;;;81.63;77.43;;;12.50;99.90;;;;;;4992321;28;20415;-71
2023/11/18 02:33:30;;;;;;;79.18;75.15;;;12.50;99.90;;;;;;4992348;28;20491;-72
2023/11/18 02:36:16;;;;;;;78.25;73.88;;;12.50;99.90;;;;;;4989814;28;20026;-72
2023/11/18 02:38:46;;;;;;;73.10;69.28;;;12.60;99.90;;;;;;4988593;28;20514;-72
2023/11/18 02:41:13;;;;;;;71.90;67.97;;;12.50;99.90;;;;;;4981563;28;20023;-72
2023/11/18 02:43:39;;;;;;;73.18;69.10;;;12.50;99.90;;;;;;4992242;28;20471;-72
2023/11/18 02:46:09;;;;;;;66.60;62.97;;;12.60;99.90;;;;;;4988576;28;20038;-71
2023/11/18 02:48:35;;;;;;;66.25;62.70;;;12.60;99.90;;;;;;4989406;28;20030;-72
2023/11/18 02:51:02;;;;;;;64.55;61.05;;;12.50;99.90;;;;;;4969863;28;20130;-72
2023/11/18 02:53:28;;;;;;;67.45;63.90;;;12.50;99.90;;;;;;4989983;28;20057;-72
2023/11/18 02:56:01;;;;;;;65.07;61.67;;;12.60;99.90;;;;;;4992159;28;20057;-72
2023/11/18 02:58:29;;;;;;;64.90;61.25;;;12.60;99.90;;;;;;4992692;28;20042;-72
2023/11/18 03:00:55;;;;;;;62.90;59.63;;;12.60;99.90;;;;;;4992041;28;20376;-72
2023/11/18 03:03:21;;;;;;;64.90;61.67;;;12.60;99.90;;;;;;4992607;28;20041;-72
2023/11/18 03:05:49;;;;;;;63.17;59.67;;;12.70;99.90;;;;;;4992322;28;20037;-72
2023/11/18 03:08:16;;;;;;;60.80;57.70;;;12.70;99.90;;;;;;4992843;28;20042;-72
2023/11/18 03:10:44;;;;;;;68.75;65.10;;;12.60;99.90;;;;;;4990750;28;20029;-72
2023/11/18 03:13:10;;;;;;;66.05;62.35;;;12.60;99.90;;;;;;4997811;28;20394;-72
2023/11/18 03:15:36;;;;;;;67.10;63.40;;;12.60;99.90;;;;;;5003181;28;20035;-72
2023/11/18 03:18:02;;;;;;;65.72;61.97;;;12.60;99.90;;;;;;4991876;28;20038;-72
2023/11/18 03:20:28;;;;;;;69.13;65.13;;;12.70;99.90;;;;;;4991920;28;20050;-71
2023/11/18 03:22:54;;;;;;;69.20;65.28;;;12.60;99.90;;;;;;4991707;28;20035;-72
2023/11/18 03:25:24;;;;;;;77.25;73.30;;;12.60;99.90;;;;;;4991857;28;20039;-71
2023/11/18 03:27:50;;;;;;;76.03;72.03;;;12.60;99.90;;;;;;4992224;28;20495;-68
2023/11/18 03:30:16;;;;;;;56.20;53.05;;;12.60;99.90;;;;;;4991976;28;20022;-67
2023/11/18 03:32:42;;;;;;;58.15;54.47;;;12.60;99.90;;;;;;4985676;28;20054;-67
2023/11/18 03:35:09;;;;;;;65.45;62.00;;;12.50;99.90;;;;;;4988375;28;20046;-67
2023/11/18 03:37:38;;;;;;;68.10;64.40;;;12.50;99.90;;;;;;4995987;28;20038;-68
2023/11/18 03:40:08;;;;;;;64.28;60.63;;;12.40;99.90;;;;;;4995643;28;20393;-67
2023/11/18 03:42:35;;;;;;;58.70;55.20;;;12.40;99.90;;;;;;5016210;28;20042;-67
2023/11/18 03:45:01;;;;;;;65.63;61.85;;;12.40;99.90;;;;;;5004834;28;20492;-67
2023/11/18 03:47:27;;;;;;;59.85;56.30;;;12.40;99.90;;;;;;4993448;28;20598;-67
2023/11/18 03:49:56;;;;;;;55.90;52.28;;;12.50;99.90;;;;;;4994635;28;20030;-68
2023/11/18 03:52:23;;;;;;;67.93;64.10;;;12.60;99.90;;;;;;4994047;28;20495;-67
2023/11/18 03:54:49;;;;;;;63.53;60.15;;;12.60;99.90;;;;;;4995443;28;20027;-67
2023/11/18 03:57:15;;;;;;;61.28;57.95;;;12.60;99.90;;;;;;4995498;28;20344;-68
2023/11/18 03:59:41;;;;;;;54.95;51.75;;;12.60;99.90;;;;;;4989235;28;20501;-67
2023/11/18 04:02:09;;;;;;;52.15;49.15;;;12.60;99.90;;;;;;4991295;28;20042;-68
2023/11/18 04:04:35;;;;;;;48.67;45.72;;;12.70;99.90;;;;;;4993994;28;20561;-67
2023/11/18 04:07:01;;;;;;;48.92;45.85;;;12.60;99.90;;;;;;4992501;28;20375;-67
2023/11/18 04:09:27;;;;;;;47.72;44.83;;;12.50;99.90;;;;;;4984179;28;20033;-68
2023/11/18 04:11:53;;;;;;;47.95;44.78;;;12.60;99.90;;;;;;4992724;28;20042;-67
2023/11/18 04:14:21;;;;;;;57.53;54.30;;;12.60;99.90;;;;;;4996250;28;20033;-68
2023/11/18 04:16:48;;;;;;;52.30;49.13;;;12.60;99.90;;;;;;4993025;28;20038;-68
2023/11/18 04:19:14;;;;;;;61.40;57.65;;;12.60;99.90;;;;;;4996237;28;20046;-68
2023/11/18 04:21:40;;;;;;;51.88;48.85;;;12.60;99.90;;;;;;4994258;28;20042;-67
2023/11/18 04:24:07;;;;;;;48.67;45.70;;;12.60;99.90;;;;;;4978025;28;20486;-68
2023/11/18 04:26:33;;;;;;;45.92;42.88;;;12.60;99.90;;;;;;4988426;28;20050;-68
2023/11/18 04:28:59;;;;;;;53.72;50.72;;;12.50;99.90;;;;;;4995995;28;20471;-68
2023/11/18 04:31:25;;;;;;;55.08;52.08;;;12.50;99.90;;;;;;4985050;28;20054;-67
2023/11/18 04:33:51;;;;;;;47.75;44.70;;;12.50;99.90;;;;;;4977398;28;20041;-68
2023/11/18 04:36:19;;;;;;;54.83;51.80;;;12.50;99.90;;;;;;4994152;28;20030;-67
2023/11/18 04:38:45;;;;;;;54.55;51.50;;;12.60;99.90;;;;;;4996092;28;20038;-68
2023/11/18 04:41:11;;;;;;;57.47;54.03;;;12.60;99.90;;;;;;4994138;28;20490;-68
2023/11/18 04:43:38;;;;;;;56.10;52.75;;;12.60;99.90;;;;;;4995189;28;20035;-68
2023/11/18 04:46:05;;;;;;;51.80;49.03;;;12.60;99.90;;;;;;4993567;28;20498;-68
2023/11/18 04:48:32;;;;;;;47.70;44.63;;;12.60;99.90;;;;;;5006916;28;20037;-67
2023/11/18 04:50:58;;;;;;;51.55;48.53;;;12.60;99.90;;;;;;4998818;28;20059;-70
2023/11/18 04:53:25;;;;;;;53.97;50.85;;;12.60;99.90;;;;;;4988333;28;20023;-70
2023/11/18 04:55:51;;;;;;;51.92;49.03;;;12.70;99.90;;;;;;4982126;28;20041;-72
2023/11/18 04:58:17;;;;;;;46.65;44.05;;;12.60;99.90;;;;;;4999742;28;20038;-70
2023/11/18 05:00:44;;;;;;;54.80;51.58;;;12.60;99.90;;;;;;4994233;28;20041;-70
2023/11/18 05:03:10;;;;;;;36.30;34.13;;;12.50;99.90;;;;;;4994900;28;20031;-72
2023/11/18 05:05:39;;;;;;;52.22;49.35;;;12.50;99.90;;;;;;4993635;28;20046;-72
2023/11/18 05:08:06;;;;;;;62.38;58.92;;;12.50;99.90;;;;;;4994873;28;20026;-71
2023/11/18 05:10:37;;;;;;;37.25;34.88;;;12.40;99.90;;;;;;4993361;28;20050;-72
2023/11/18 05:13:03;;;;;;;43.40;40.75;;;12.40;99.90;;;;;;4993825;28;20037;-72
2023/11/18 05:15:31;;;;;;;58.42;54.88;;;12.40;99.90;;;;;;4993825;28;20033;-71
2023/11/18 05:17:57;;;;;;;59.70;56.45;;;12.30;99.90;;;;;;5001192;28;20045;-72
2023/11/18 05:20:23;;;;;;;54.75;51.90;;;12.40;99.90;;;;;;5012809;28;20404;-72
2023/11/18 05:22:49;;;;;;;58.10;54.80;;;12.40;99.90;;;;;;5012947;28;20049;-72
2023/11/18 05:25:15;;;;;;;60.33;56.92;;;12.50;99.90;;;;;;5007481;28;20395;-72
2023/11/18 05:27:41;;;;;;;58.88;55.45;;;12.50;99.90;;;;;;4998674;28;20030;-72
2023/11/18 05:30:09;;;;;;;49.33;46.42;;;12.50;99.90;;;;;;5012155;28;20026;-72
2023/11/18 05:32:35;;;;;;;52.45;49.60;;;12.50;99.90;;;;;;5012864;28;20026;-72
2023/11/18 05:35:04;;;;;;;50.33;47.58;;;12.50;99.90;;;;;;4996099;28;20042;-71
2023/11/18 05:37:35;;;;;;;48.85;45.92;;;12.50;99.90;;;;;;5011475;28;20034;-71
2023/11/18 05:40:09;;;;;;;49.17;46.42;;;12.60;99.90;;;;;;4994379;28;20026;-70
2023/11/18 05:42:36;;;;;;;47.45;44.72;;;12.60;99.90;;;;;;5012711;28;20034;-72
2023/11/18 05:45:04;;;;;;;47.13;44.45;;;12.60;99.90;;;;;;5013086;28;20483;-69
2023/11/18 05:47:30;;;;;;;46.15;43.47;;;12.60;99.90;;;;;;5011902;28;20061;-70
2023/11/18 05:49:56;;;;;;;44.35;41.70;;;12.70;99.90;;;;;;4992997;28;20034;-72
2023/11/18 05:52:22;;;;;;;37.78;35.22;;;12.60;99.90;;;;;;4992470;28;20050;-72
2023/11/18 05:54:48;;;;;;;43.78;41.22;;;12.60;99.90;;;;;;4993292;28;20042;-72
2023/11/18 05:57:16;;;;;;;46.47;43.88;;;12.60;99.90;;;;;;4993931;28;20472;-72
2023/11/18 05:59:42;;;;;;;47.65;44.88;;;12.60;99.90;;;;;;4993344;28;20034;-72
2023/11/18 06:02:13;;;;;;;45.92;42.78;;;12.70;99.90;;;;;;4992675;28;20506;-72
2023/11/18 06:04:39;;;;;;;47.20;44.08;;;12.70;99.90;;;;;;4993697;28;20411;-73
2023/11/18 06:07:06;;;;;;;49.70;46.60;;;12.70;99.90;;;;;;4993829;28;20053;-73
2023/11/18 06:09:32;;;;;;;42.88;40.67;;;12.70;99.90;;;;;;4994185;28;20502;-72
2023/11/18 06:11:58;;;;;;;39.15;36.67;;;12.70;99.90;;;;;;5008260;28;20431;-73
2023/11/18 06:14:26;;;;;;;39.60;37.28;;;12.70;99.90;;;;;;4993898;28;20039;-73
2023/11/18 06:16:52;;;;;;;38.78;36.55;;;12.80;99.90;;;;;;4993138;28;20038;-72
2023/11/18 06:19:18;;;;;;;42.85;40.25;;;12.80;99.90;;;;;;4993895;28;20046;-73
2023/11/18 06:21:45;;;;;;;43.63;41.10;;;12.90;99.90;;;;;;4993394;28;20063;-72
2023/11/18 06:24:13;;;;;;;40.92;38.70;;;12.90;99.90;;;;;;4993497;28;20053;-73
2023/11/18 06:26:39;;;;;;;45.90;43.22;;;12.90;99.90;;;;;;5001916;28;20061;-72
2023/11/18 06:29:06;;;;;;;46.72;43.95;;;12.90;99.90;;;;;;5013216;28;20376;-72
2023/11/18 06:31:32;;;;;;;48.17;45.40;;;12.90;99.90;;;;;;5012110;28;20038;-73
2023/11/18 06:33:58;;;;;;;55.35;52.45;;;12.90;99.90;;;;;;5012990;28;20042;-73
2023/11/18 06:36:26;;;;;;;60.67;57.15;;;12.90;99.90;;;;;;5012711;28;20045;-72
2023/11/18 06:38:53;;;;;;;57.13;53.78;;;12.80;99.90;;;;;;5001475;28;20391;-72
2023/11/18 06:41:23;;;;;;;62.65;58.97;;;12.90;99.90;;;;;;4993334;28;20042;-72
2023/11/18 06:43:56;;;;;;;66.68;62.83;;;12.90;99.90;;;;;;5012688;28;20054;-73
2023/11/18 06:46:28;;;;;;;48.83;46.08;;;13.00;99.90;;;;;;5011426;28;20056;-73
2023/11/18 06:48:55;;;;;;;50.22;47.00;;;13.00;99.90;;;;;;5012848;28;20041;-73
2023/11/18 06:51:24;;;;;;;45.53;42.90;;;13.00;99.90;;;;;;5012478;28;20049;-73
2023/11/18 06:53:57;;;;;;;43.75;40.92;;;13.00;99.90;;;;;;5010015;28;20022;-73
2023/11/18 06:56:23;;;;;;;53.08;49.97;;;13.10;99.90;;;;;;4992712;28;20049;-72
2023/11/18 06:58:49;;;;;;;55.17;51.90;;;13.10;99.90;;;;;;4998698;28;20212;-72
2023/11/18 07:01:16;;;;;;;60.88;57.15;;;13.20;99.90;;;;;;4992707;28;20037;-72
2023/11/18 07:03:43;;;;;;;66.43;62.63;;;13.20;99.90;;;;;;4992338;28;20514;-66
2023/11/18 07:06:09;;;;;;;70.47;66.45;;;13.20;99.90;;;;;;4992649;28;20057;-72
2023/11/18 07:08:36;;;;;;;55.53;52.10;;;13.30;99.90;;;;;;4992813;28;20031;-73
2023/11/18 07:11:03;;;;;;;59.50;55.60;;;13.30;99.90;;;;;;4991671;28;20041;-72
2023/11/18 07:13:29;;;;;;;54.45;50.78;;;13.30;99.90;;;;;;4980344;28;20033;-73
2023/11/18 07:15:57;;;;;;;55.05;51.60;;;13.30;99.90;;;;;;4992758;28;20103;-69
2023/11/18 07:18:24;;;;;;;49.70;46.72;;;13.30;99.90;;;;;;4993204;28;20046;-69
2023/11/18 07:20:53;;;;;;;41.20;38.35;;;13.30;99.90;;;;;;4993352;28;20042;-69
2023/11/18 07:23:19;;;;;;;41.90;39.22;;;13.30;99.90;;;;;;4991530;28;20464;-70
2023/11/18 07:25:45;;;;;;;45.33;41.95;;;13.40;99.90;;;;;;4991049;28;20498;-69
2023/11/18 07:28:14;;;;;;;44.45;41.67;;;13.40;99.90;;;;;;4991583;28;20486;-69
2023/11/18 07:30:42;;;;;;;42.83;39.95;;;13.40;99.90;;;;;;4991160;28;20030;-70
2023/11/18 07:33:08;;;;;;;45.60;42.35;;;13.40;99.90;;;;;;4992712;28;20034;-69
2023/11/18 07:35:36;;;;;;;52.58;48.72;;;13.40;99.90;;;;;;4992521;28;20026;-69
2023/11/18 07:38:02;;;;;;;62.15;58.30;;;13.40;99.90;;;;;;4991662;28;20403;-69
2023/11/18 07:40:29;;;;;;;51.83;48.72;;;13.40;99.90;;;;;;4974684;28;20039;-69
2023/11/18 07:43:01;;;;;;;82.07;75.32;;;13.40;99.90;;;;;;4992502;28;20053;-69
2023/11/18 07:45:28;;;;;;;50.55;47.40;;;13.40;99.90;;;;;;4991960;28;20680;-69
2023/11/18 07:47:55;;;;;;;47.03;43.83;;;13.50;99.90;;;;;;4990126;28;20081;-69
2023/11/18 07:50:21;;;;;;;56.65;53.03;;;13.50;99.90;;;;;;4982050;28;20507;-69
2023/11/18 07:52:50;;;;;;;52.63;49.42;;;13.50;99.90;;;;;;4972101;28;20042;-68
2023/11/18 07:55:16;;;;;;;48.33;45.35;;;13.50;99.90;;;;;;4989937;28;20034;-69
2023/11/18 07:57:42;;;;;;;49.58;46.38;;;13.60;99.90;;;;;;4990830;28;20475;-69
2023/11/18 08:00:09;;;;;;;44.05;41.00;;;13.50;99.90;;;;;;4991816;28;20384;-69
2023/11/18 08:02:39;;;;;;;49.85;46.80;;;13.60;99.90;;;;;;5001747;28;20049;-69
2023/11/18 08:05:08;;;;;;;45.13;42.47;;;13.60;99.90;;;;;;4991109;28;20035;-69
2023/11/18 08:07:35;;;;;;;55.55;51.78;;;13.60;99.90;;;;;;4991985;28;20042;-69
2023/11/18 08:10:04;;;;;;;49.60;46.53;;;13.60;99.90;;;;;;4991049;28;20511;-69
2023/11/18 08:12:33;;;;;;;50.08;46.78;;;13.60;99.90;;;;;;4990989;28;20041;-70
2023/11/18 08:15:00;;;;;;;54.17;50.55;;;13.70;99.90;;;;;;4991179;28;20379;-69
2023/11/18 08:17:26;;;;;;;50.33;47.20;;;13.60;99.90;;;;;;4990128;28;20403;-68
2023/11/18 08:19:52;;;;;;;52.22;48.92;;;13.60;99.90;;;;;;4994293;28;20043;-67
2023/11/18 08:22:19;;;;;;;47.70;44.60;;;13.70;99.90;;;;;;4995778;28;20432;-67
2023/11/18 08:24:46;;;;;;;50.67;47.45;;;13.70;99.90;;;;;;5010981;28;20050;-67
2023/11/18 08:27:12;;;;;;;66.88;62.78;;;13.70;99.90;;;;;;5014979;28;20038;-67
2023/11/18 08:29:38;;;;;;;68.72;64.68;;;13.80;99.90;;;;;;5002139;28;20026;-67
2023/11/18 08:32:06;;;;;;;64.60;60.45;;;13.80;99.90;;;;;;4997235;28;20430;-67
2023/11/18 08:34:33;;;;;;;88.63;83.40;;;13.80;99.90;;;;;;4994740;28;20045;-67
2023/11/18 08:36:59;;;;;;;111.30;104.57;;;13.70;99.90;;;;;;4995740;28;20510;-67
2023/11/18 08:39:26;;;;;;;93.45;88.13;;;13.80;99.90;;;;;;4995498;28;20383;-67
2023/11/18 08:41:52;;;;;;;72.22;68.20;;;13.70;99.90;;;;;;4995013;28;20030;-67
2023/11/18 08:44:18;;;;;;;68.38;64.20;;;13.80;99.90;;;;;;4995847;28;20484;-67
2023/11/18 08:46:44;;;;;;;62.85;58.95;;;13.70;99.90;;;;;;4994535;28;20050;-67
2023/11/18 08:49:13;;;;;;;67.65;63.55;;;13.80;99.90;;;;;;4995356;28;20455;-67
2023/11/18 08:51:41;;;;;;;47.88;44.30;;;13.80;99.90;;;;;;4994479;28;20034;-67
2023/11/18 08:54:25;;;;;;;45.95;43.00;;;13.80;99.90;;;;;;4995705;28;20034;-68
2023/11/18 08:56:54;;;;;;;47.08;44.03;;;13.90;99.90;;;;;;4994259;28;20061;-68
2023/11/18 08:59:27;;;;;;;49.10;45.92;;;13.90;99.90;;;;;;4986205;28;20042;-69
2023/11/18 09:01:55;;;;;;;97.00;57.00;;;13.90;99.90;;;;;;5006481;28;20049;-67
2023/11/18 09:04:27;;;;;;;49.88;46.22;;;13.90;99.90;;;;;;4998739;28;20043;-67
2023/11/18 09:07:00;;;;;;;53.00;49.88;;;14.00;99.90;;;;;;4993747;28;20088;-67
2023/11/18 09:09:27;;;;;;;60.47;56.97;;;14.00;99.90;;;;;;4994696;28;20042;-66
2023/11/18 09:11:57;;;;;;;62.72;58.90;;;14.00;99.90;;;;;;4994332;28;20045;-67
2023/11/18 09:14:24;;;;;;;63.35;59.17;;;14.00;99.90;;;;;;4995249;28;20051;-67
2023/11/18 09:16:51;;;;;;;62.85;58.78;;;14.00;99.90;;;;;;4992927;28;20030;-67
2023/11/18 09:19:21;;;;;;;59.33;55.65;;;14.10;99.90;;;;;;4975502;28;20495;-67
2023/11/18 09:21:48;;;;;;;59.70;55.85;;;14.10;99.90;;;;;;4987438;28;20129;-74
2023/11/18 09:24:19;;;;;;;56.83;53.78;;;14.10;99.90;;;;;;4987945;28;20049;-74
2023/11/18 09:26:47;;;;;;;;;;;14.10;99.90;;;;;;4987793;28;20046;-74
2023/11/18 09:29:17;;;;;;;57.97;54.42;;;14.20;99.90;;;;;;4994714;28;19912;-74
2023/11/18 09:31:52;;;;;;;72.43;67.70;;;14.20;99.90;;;;;;4993802;28;20140;-73
2023/11/18 09:34:26;;;;;;;79.43;74.82;;;14.30;99.90;;;;;;4976887;28;20043;-73
2023/11/18 09:36:54;;;;;;;82.65;77.85;;;14.30;99.90;;;;;;4979809;28;20034;-72
2023/11/18 09:39:37;;;;;;;83.07;78.43;;;14.30;99.90;;;;;;4991091;28;20491;-73
2023/11/18 09:42:08;;;;;;;73.68;69.68;;;14.40;99.90;;;;;;4994075;28;20051;-72
2023/11/18 09:44:37;;;;;;;53.08;49.92;;;14.40;99.90;;;;;;4994014;28;20042;-73
2023/11/18 09:47:04;;;;;;;92.70;87.28;;;14.40;99.90;;;;;;4992253;28;20561;-72
2023/11/18 09:49:38;;;;;;;97.45;92.00;;;14.50;99.90;;;;;;4988949;28;20050;-72
2023/11/18 09:52:05;;;;;;;96.57;90.95;;;14.50;99.90;;;;;;5002184;28;20403;-73
2023/11/18 09:55:04;;;;;;;91.10;85.93;;;14.50;99.90;;;;;;4979953;28;20031;-73
2023/11/18 09:57:34;;;;;;;79.45;74.72;;;14.60;99.90;;;;;;4985439;28;20038;-73
2023/11/18 10:02:55;;;;;;;71.60;67.47;;;14.60;99.90;;;;;;4992984;28;20144;-74
2023/11/18 10:05:22;;;;;;;93.97;88.80;;;14.70;99.90;;;;;;4993467;28;20089;-72
2023/11/18 10:07:49;;;;;;;77.15;72.78;;;14.70;99.90;;;;;;4994158;28;20050;-72
2023/11/18 10:10:15;;;;;;;79.30;74.70;;;14.80;99.90;;;;;;4993528;28;20034;-72
2023/11/18 10:12:45;;;;;;;90.43;85.28;;;14.80;99.90;;;;;;4994125;28;20026;-72
2023/11/18 10:15:14;;;;;;;63.08;59.20;;;14.80;99.90;;;;;;4993190;28;20026;-72
2023/11/18 10:17:55;;;;;;;60.63;56.45;;;14.80;99.90;;;;;;4984689;28;20505;-72
2023/11/18 10:20:25;;;;;;;57.45;54.13;;;14.80;99.90;;;;;;5004946;28;20051;-72
2023/11/18 10:23:11;;;;;;;94.28;88.82;;;14.90;99.90;;;;;;5013344;28;20407;-72
2023/11/18 10:25:45;;;;;;;110.20;104.35;;;14.90;99.90;;;;;;5012257;28;20034;-72
2023/11/18 10:28:23;;;;;;;103.40;97.55;;;15.00;99.90;;;;;;5003897;28;20395;-72
2023/11/18 10:30:57;;;;;;;100.78;95.38;;;15.10;99.90;;;;;;4991339;28;20026;-72
2023/11/18 10:33:30;;;;;;;92.03;86.32;;;15.10;99.90;;;;;;4993965;28;20043;-68
2023/11/18 10:35:57;;;;;;;91.45;86.07;;;15.20;99.90;;;;;;5001623;28;20499;-68
2023/11/18 10:38:25;;;;;;;83.78;78.88;;;15.20;99.90;;;;;;5012870;28;20078;-68
2023/11/18 10:40:55;;;;;;;101.72;96.05;;;15.20;99.90;;;;;;5011774;28;20386;-68
2023/11/18 10:43:24;;;;;;;115.07;109.07;;;15.20;99.90;;;;;;4993121;28;20042;-68
2023/11/18 10:45:52;;;;;;;76.90;72.40;;;15.20;99.90;;;;;;4992366;28;20034;-68
2023/11/18 10:48:20;;;;;;;57.10;53.65;;;15.20;99.90;;;;;;4992395;28;20049;-69
2023/11/18 10:50:48;;;;;;;73.97;69.82;;;15.30;99.90;;;;;;4991526;28;20038;-69
2023/11/18 10:53:15;;;;;;;57.85;54.15;;;15.40;99.90;;;;;;4992920;28;20050;-69
2023/11/18 10:55:41;;;;;;;55.88;52.72;;;15.40;99.90;;;;;;4997281;28;20052;-69
2023/11/18 10:58:08;;;;;;;58.88;55.50;;;15.40;99.90;;;;;;4994055;28;20042;-70
2023/11/18 11:00:51;;;;;;;63.97;60.30;;;15.40;99.90;;;;;;4992267;28;20045;-69
2023/11/18 11:03:18;;;;;;;62.85;58.95;;;15.50;99.90;;;;;;4992433;28;20459;-69
2023/11/18 11:05:44;;;;;;;57.53;54.20;;;15.40;99.90;;;;;;4992661;28;20042;-69
2023/11/18 11:08:14;;;;;;;56.92;53.72;;;15.40;99.90;;;;;;4991757;28;20042;-69
2023/11/18 11:10:43;;;;;;;59.60;56.05;;;15.40;99.90;;;;;;4992471;28;20018;-69
2023/11/18 11:13:11;;;;;;;55.88;52.75;;;15.50;99.90;;;;;;4992766;28;20511;-69
2023/11/18 11:15:49;;;;;;;67.32;63.25;;;15.50;99.90;;;;;;4991642;28;20487;-69
2023/11/18 11:18:27;;;;;;;61.95;58.25;;;15.50;99.90;;;;;;4992285;28;20403;-69
2023/11/18 11:21:19;;;;;;;53.90;50.88;;;15.50;99.90;;;;;;4992846;28;20045;-69
2023/11/18 11:23:49;;;;;;;49.58;46.67;;;15.60;99.90;;;;;;4991333;28;20046;-69
2023/11/18 11:26:27;;;;;;;47.50;44.63;;;15.60;99.90;;;;;;4992200;28;20050;-70
2023/11/18 11:29:28;;;;;;;48.50;45.78;;;15.60;99.90;;;;;;4990594;28;20061;-69
2023/11/18 11:32:18;;;;;;;70.90;67.05;;;15.60;99.90;;;;;;4988513;28;20407;-69
2023/11/18 11:34:58;;;;;;;55.72;52.47;;;15.70;99.90;;;;;;4979187;28;20047;-69
2023/11/18 11:37:28;;;;;;;49.10;46.43;;;15.70;99.90;;;;;;4974825;28;20661;-73
2023/11/18 11:39:55;;;;;;;63.85;59.75;;;15.60;99.90;;;;;;4990683;28;20065;-73
2023/11/18 11:42:21;;;;;;;51.90;48.83;;;15.70;99.90;;;;;;4978750;28;20050;-74
2023/11/18 11:44:48;;;;;;;59.15;55.53;;;15.70;99.90;;;;;;4991710;28;20038;-71
2023/11/18 11:47:15;;;;;;;58.20;55.00;;;15.70;99.90;;;;;;4989678;28;20050;-73
2023/11/18 11:49:48;;;;;;;58.70;55.00;;;15.70;99.90;;;;;;4992779;28;20050;-72
2023/11/18 11:52:37;;;;;;;68.90;64.75;;;15.60;99.90;;;;;;4992380;28;20494;-74
2023/11/18 11:55:13;;;;;;;71.50;67.40;;;15.60;99.90;;;;;;4975227;28;20481;-73
2023/11/18 11:57:41;;;;;;;72.03;67.85;;;15.60;99.90;;;;;;4989021;28;20065;-74
2023/11/18 12:00:17;;;;;;;76.65;72.43;;;15.60;99.90;;;;;;4993368;28;20047;-73
2023/11/18 12:02:49;;;;;;;81.47;76.85;;;15.60;99.90;;;;;;4989200;28;20069;-72
2023/11/18 12:05:27;;;;;;;87.28;82.35;;;15.70;99.90;;;;;;4995663;28;20041;-74
2023/11/18 12:07:56;;;;;;;96.55;91.07;;;15.70;99.90;;;;;;4996071;28;20069;-72
2023/11/18 12:10:40;;;;;;;90.95;85.75;;;15.70;99.90;;;;;;4994094;28;20042;-72
2023/11/18 12:13:16;;;;;;;85.68;80.78;;;15.70;99.90;;;;;;4994039;28;20042;-74
2023/11/18 12:16:03;;;;;;;102.13;96.55;;;15.70;99.90;;;;;;4994161;28;20027;-74
2023/11/18 12:18:33;;;;;;;99.80;94.35;;;15.70;99.90;;;;;;4995745;28;20053;-74
2023/11/18 12:21:03;;;;;;;83.72;79.18;;;15.70;99.90;;;;;;4999401;28;20058;-72
2023/11/18 12:23:30;;;;;;;91.07;86.05;;;15.70;99.90;;;;;;5008468;28;20042;-72
2023/11/18 12:25:57;;;;;;;69.72;65.95;;;15.70;99.90;;;;;;5007682;28;20050;-74
2023/11/18 12:28:34;;;;;;;94.70;89.75;;;15.70;99.90;;;;;;5014779;28;20054;-73
2023/11/18 12:31:13;;;;;;;90.28;85.07;;;15.70;99.90;;;;;;5000772;28;20031;-73
2023/11/18 12:33:55;;;;;;;102.55;97.03;;;15.70;99.90;;;;;;4995810;28;20046;-73
2023/11/18 12:36:30;;;;;;;89.53;84.35;;;15.70;99.90;;;;;;4992905;28;20057;-72